Create Custom Reports and Graphics: Custom Report

Modesto Jr College

Current Conditions

3/30/20 10:45 PM (-07:00)
Updated Every 15 Minutes
Temp 53.1 °F   4.0
RH 80 %   9
Dew Pt 47.0 °F   1.3
Wind Spd 3.6 mph
Wind Dir NW | 311 °
Wind Gust 7.0 mph   4.4
Latest Rain 0.00 In
Daily Rain 0.00 In
Daily Min Temp 40.1 °F   6.9
Daily Max Temp 68.2 °F   1.1

Last 24 Hours

Modesto Jr College

15 Minute Data | America/Los_Angeles
as of 3/30/20 10:46 PM PDT
Date & Time Temp (°F) RH (%) Dew Pt (°F) Wind Spd (mph) Wind Dir (°) Wind Gust (mph) Latest Rain (In) Daily Rain (In) Daily Min Temp (°F) Daily Max Temp (°F)
3/30/20 - 2245 53.1 80 47.0 3.6 NW | 311 7.0 0.00 0.00 40.1 68.2
3/30/20 - 2230 53.7 77 46.9 3.0 WNW | 300 6.1 0.00 0.00 40.1 68.2
3/30/20 - 2215 54.4 75 46.7 2.9 NW | 314 6.1 0.00 0.00 40.1 68.2
3/30/20 - 2200 55.3 72 46.5 4.2 NW | 321 7.5 0.00 0.00 40.1 68.2
3/30/20 - 2145 55.8 71 46.4 4.5 NW | 325 8.6 0.00 0.00 40.1 68.2
3/30/20 - 2130 56.5 68 46.3 5.3 NW | 318 10.1 0.00 0.00 40.1 68.2
3/30/20 - 2115 57.1 66 45.9 5.8 NW | 306 11.6 0.00 0.00 40.1 68.2
3/30/20 - 2100 57.3 65 45.8 6.5 NW | 306 11.2 0.00 0.00 40.1 68.2
3/30/20 - 2045 57.8 65 46.2 5.8 NW | 318 11.2 0.00 0.00 40.1 68.2
3/30/20 - 2030 58.0 65 46.4 5.9 NW | 315 12.9 0.00 0.00 40.1 68.2
3/30/20 - 2015 58.9 63 46.5 5.2 NW | 306 9.4 0.00 0.00 40.1 68.2
3/30/20 - 2000 59.5 61 46.0 6.3 WNW | 298 12.5 0.00 0.00 40.1 68.2
3/30/20 - 1945 59.4 59 45.0 3.6 WNW | 302 9.4 0.00 0.00 40.1 68.2
3/30/20 - 1930 60.5 57 45.1 2.5 NW | 310 4.2 0.00 0.00 40.1 68.2
3/30/20 - 1915 62.0 53 44.8 3.1 NW | 308 5.0 0.00 0.00 40.1 68.2
3/30/20 - 1900 63.6 50 44.5 3.6 WNW | 292 5.5 0.00 0.00 40.1 68.2
3/30/20 - 1845 64.5 48 44.1 3.8 WNW | 289 7.5 0.00 0.00 40.1 68.2
3/30/20 - 1830 65.2 46 44.0 4.9 WNW | 288 8.3 0.00 0.00 40.1 68.2
3/30/20 - 1815 65.6 46 44.1 5.3 WNW | 297 9.4 0.00 0.00 40.1 68.2
3/30/20 - 1800 66.4 45 44.4 5.2 WNW | 290 9.6 0.00 0.00 40.1 68.2
3/30/20 - 1745 66.6 45 44.5 4.8 WNW | 291 9.0 0.00 0.00 40.1 68.2
3/30/20 - 1730 67.0 44 44.4 6.0 W | 281 11.0 0.00 0.00 40.1 68.2
3/30/20 - 1715 67.5 45 45.6 5.9 W | 272 10.7 0.00 0.00 40.1 68.2
3/30/20 - 1700 67.7 46 46.2 4.8 WNW | 283 10.3 0.00 0.00 40.1 68.2
3/30/20 - 1645 67.0 48 46.6 5.5 WNW | 294 9.9 0.00 0.00 40.1 68.2
3/30/20 - 1630 67.2 48 47.0 5.5 NW | 320 15.3 0.00 0.00 40.1 68.2
3/30/20 - 1615 67.4 47 46.7 3.6 WNW | 300 10.1 0.00 0.00 40.1 68.2
3/30/20 - 1600 67.2 49 47.4 5.1 WNW | 295 10.3 0.00 0.00 40.1 68.2
3/30/20 - 1545 66.8 50 47.8 3.7 NW | 311 8.8 0.00 0.00 40.1 68.2
3/30/20 - 1530 67.7 50 48.2 4.3 W | 274 11.2 0.00 0.00 40.1 68.2
3/30/20 - 1515 67.7 49 48.0 4.6 WSW | 243 10.7 0.00 0.00 40.1 68.2
3/30/20 - 1500 67.0 50 47.8 6.6 WNW | 285 12.9 0.00 0.00 40.1 68.2
3/30/20 - 1445 67.4 50 47.9 3.9 W | 271 8.3 0.00 0.00 40.1 68.0
3/30/20 - 1430 66.4 50 47.2 3.5 WNW | 294 8.8 0.00 0.00 40.1 67.1
3/30/20 - 1415 66.7 49 47.1 4.1 WSW | 255 8.8 0.00 0.00 40.1 67.1
3/30/20 - 1400 65.7 52 47.8 2.8 WNW | 286 7.7 0.00 0.00 40.1 66.8
3/30/20 - 1345 65.7 53 48.3 3.7 W | 266 8.6 0.00 0.00 40.1 66.6
3/30/20 - 1330 64.6 53 47.1 2.7 S | 190 7.9 0.00 0.00 40.1 65.8
3/30/20 - 1315 64.8 53 47.1 4.7 WSW | 241 9.4 0.00 0.00 40.1 65.8
3/30/20 - 1300 65.0 53 47.5 2.1 W | 264 7.0 0.00 0.00 40.1 65.8
3/30/20 - 1245 63.9 57 48.3 3.9 W | 262 9.0 0.00 0.00 40.1 65.8
3/30/20 - 1230 62.2 56 46.5 3.2 W | 265 7.9 0.00 0.00 40.1 62.8
3/30/20 - 1215 61.8 59 47.2 3.6 WSW | 244 7.5 0.00 0.00 40.1 62.6
3/30/20 - 1200 61.6 60 47.5 2.5 SSW | 212 6.8 0.00 0.00 40.1 61.9
3/30/20 - 1145 59.9 65 47.9 2.5 NNW | 332 5.7 0.00 0.00 40.1 61.7
3/30/20 - 1130 59.6 64 47.6 4.0 NNW | 330 7.0 0.00 0.00 40.1 61.3
3/30/20 - 1115 60.2 65 48.2 4.3 W | 281 8.8 0.00 0.00 40.1 61.2
3/30/20 - 1100 58.3 68 47.8 5.8 WNW | 293 10.1 0.00 0.00 40.1 59.3
3/30/20 - 1045 57.8 71 48.6 5.6 NW | 315 12.5 0.00 0.00 40.1 58.4
3/30/20 - 1030 56.9 73 48.5 4.8 NW | 325 8.8 0.00 0.00 40.1 57.3
3/30/20 - 1015 56.8 73 48.3 4.8 NW | 309 8.6 0.00 0.00 40.1 57.2
3/30/20 - 1000 55.5 76 48.2 5.0 NNW | 340 8.6 0.00 0.00 40.1 56.3
3/30/20 - 0945 55.0 79 48.6 5.1 NW | 322 9.4 0.00 0.00 40.1 55.5
3/30/20 - 0930 54.2 83 49.3 4.1 NW | 312 7.7 0.00 0.00 40.1 54.7
3/30/20 - 0915 53.1 90 50.4 2.6 NW | 320 4.6 0.00 0.00 40.1 53.7
3/30/20 - 0900 52.0 96 50.8 1.4 WNW | 293 2.6 0.00 0.00 40.1 53.0
3/30/20 - 0845 50.6 97 49.7 0.8 W | 279 2.0 0.00 0.00 40.1 51.5
3/30/20 - 0830 49.2 97 48.3 0.9 W | 267 1.8 0.00 0.00 40.1 50.0
3/30/20 - 0815 48.0 97 47.1 1.6 WSW | 252 2.6 0.00 0.00 40.1 48.7
3/30/20 - 0800 46.6 97 45.8 1.2 W | 271 2.2 0.00 0.00 40.1 47.9
3/30/20 - 0745 44.6 97 43.8 0.7 NNW | 336 1.8 0.00 0.00 40.1 47.9
3/30/20 - 0730 42.7 97 41.8 0.1 WSW | 256 0.9 0.00 0.00 40.1 47.9
3/30/20 - 0715 40.9 96 39.9 0.4 W | 274 1.3 0.00 0.00 40.1 47.9
3/30/20 - 0700 40.5 96 39.4 0.4 WSW | 237 1.1 0.00 0.00 40.1 47.9
3/30/20 - 0645 40.9 95 39.7 0.3 N | 1 1.3 0.00 0.00 40.1 47.9
3/30/20 - 0630 40.7 95 39.5 0.1 NNW | 348 0.9 0.00 0.00 40.2 47.9
3/30/20 - 0615 41.1 95 39.8 0.1 WSW | 252 0.9 0.00 0.00 40.7 47.9
3/30/20 - 0600 41.9 95 40.6 0.2 WNW | 282 0.9 0.00 0.00 41.4 47.9
3/30/20 - 0545 42.0 95 40.7 0.6 W | 260 1.3 0.00 0.00 41.6 47.9
3/30/20 - 0530 41.9 95 40.5 0.9 WSW | 245 1.8 0.00 0.00 41.6 47.9
3/30/20 - 0515 42.1 94 40.6 2.2 W | 265 3.9 0.00 0.00 41.6 47.9
3/30/20 - 0500 42.8 94 41.2 1.7 W | 264 2.8 0.00 0.00 42.3 47.9
3/30/20 - 0445 43.1 93 41.3 0.8 WSW | 238 2.2 0.00 0.00 42.7 47.9
3/30/20 - 0430 44.1 93 42.2 0.3 WSW | 248 1.5 0.00 0.00 43.3 47.9
3/30/20 - 0415 46.0 93 44.1 1.1 N | 356 2.0 0.00 0.00 44.6 47.9
3/30/20 - 0400 46.7 93 44.9 1.1 NNE | 25 2.4 0.00 0.00 45.1 47.9
3/30/20 - 0345 46.5 94 44.9 1.6 NNE | 27 2.8 0.00 0.00 45.1 47.9
3/30/20 - 0330 46.1 94 44.6 1.7 NE | 41 2.8 0.00 0.00 45.1 47.9
3/30/20 - 0315 45.6 94 43.9 1.3 NE | 38 2.2 0.00 0.00 45.1 47.9
3/30/20 - 0300 46.2 93 44.4 1.6 NNE | 23 2.4 0.00 0.00 45.6 47.9
3/30/20 - 0245 46.4 93 44.6 1.9 NNE | 32 3.3 0.00 0.00 45.6 47.9
3/30/20 - 0230 46.2 92 44.1 0.7 NNE | 31 2.2 0.00 0.00 45.6 47.9
3/30/20 - 0215 47.0 92 44.7 1.6 N | 358 3.3 0.00 0.00 46.6 47.9
3/30/20 - 0200 47.6 92 45.4 2.2 N | 5 3.5 0.00 0.00 47.0 47.9
3/30/20 - 0145 47.3 92 45.0 2.0 NNE | 13 3.7 0.00 0.00 47.0 47.8
3/30/20 - 0130 47.4 91 45.0 2.1 NNE | 13 3.9 0.00 0.00 47.1 47.8
3/30/20 - 0115 47.4 91 44.8 2.8 NNE | 20 4.2 0.00 0.00 47.1 47.7
3/30/20 - 0100 48.2 89 45.0 3.8 NNE | 16 5.5 0.00 0.00 47.0 67.1
3/30/20 - 0045 49.2 86 45.4 2.4 N | 1 3.5 0.00 0.00 47.0 67.1
3/30/20 - 0030 49.9 85 45.7 2.9 NNW | 344 5.7 0.00 0.00 47.0 67.1
3/30/20 - 0015 50.2 85 45.9 3.4 NW | 321 6.1 0.00 0.00 47.0 67.1
3/30/20 - 0000 50.4 85 46.1 3.9 NW | 321 6.4 0.00 0.00 47.0 67.1
3/29/20 - 2345 50.8 85 46.3 3.9 NW | 325 7.5 0.00 0.00 47.0 67.1
3/29/20 - 2330 50.4 86 46.4 3.7 NW | 322 6.8 0.00 0.00 47.0 67.1
3/29/20 - 2315 49.7 87 46.0 3.3 NW | 323 5.7 0.00 0.00 47.0 67.1
3/29/20 - 2300 49.4 89 46.3 2.1 NW | 325 4.8 0.00 0.00 47.0 67.1
3/29/20 - 2245 49.1 88 45.8 1.2 WNW | 298 2.6 0.00 0.00 47.0 67.1
Max 67.7 97 50.8 6.6 - 15.3 0.00 0.00 47.1 68.2
Avg 55.0 74 45.6 3.2 - 6.4 0.00 - - -
Min 40.5 44 39.4 0.1 - 0.9 0.00 0.00 40.1 47.7
Total - - - - - - 0.00 - - -

Last 7 Days

Modesto Jr College

Daily Data | America/Los_Angeles
as of 3/30/20 10:46 PM PDT
Date Daily ETo (in)
3/29/20 0.091
3/28/20 0.061
3/27/20 0.129
3/26/20 0.090
3/25/20 0.085
3/24/20 0.107
3/23/20 0.081
Max 0.129
Min 0.061